Time;durP1;ratioP1;P1;durP2;ratioP2;P2;SDS_P1;SDS_P2;PMS_P1;PMS_P2;Temp;Humidity;BMP_temperature;BMP_pressure;BME280_temperature;BME280_humidity;BME280_pressure;Samples;Min_cycle;Max_cycle;Signal;HPM_P1;HPM_P2
2023/04/27 00:01:46;;;;;;;2.17;0.93;;;9.70;72.10;;;;;;5026734;28;20197;-68
2023/04/27 00:04:15;;;;;;;1.47;0.80;;;9.70;72.20;;;;;;5035298;28;20251;-68
2023/04/27 00:06:42;;;;;;;2.80;1.10;;;9.70;72.40;;;;;;5055680;28;20200;-67
2023/04/27 00:09:09;;;;;;;2.43;1.50;;;9.70;72.50;;;;;;5049626;28;20215;-67
2023/04/27 00:11:36;;;;;;;2.20;1.00;;;9.70;72.70;;;;;;5047840;28;20207;-67
2023/04/27 00:14:03;;;;;;;2.47;1.13;;;9.70;72.80;;;;;;5053580;28;20230;-67
2023/04/27 00:16:31;;;;;;;1.70;0.80;;;9.70;73.00;;;;;;5052668;28;20696;-67
2023/04/27 00:18:59;;;;;;;1.03;0.83;;;9.70;73.10;;;;;;5047122;28;20197;-67
2023/04/27 00:21:26;;;;;;;1.20;0.70;;;9.70;73.10;;;;;;5044692;28;20202;-67
2023/04/27 00:23:54;;;;;;;2.00;0.87;;;9.70;73.10;;;;;;5050261;28;20252;-67
2023/04/27 00:26:21;;;;;;;1.13;0.70;;;9.60;73.30;;;;;;5047093;28;20679;-66
2023/04/27 00:28:51;;;;;;;3.40;1.23;;;9.70;73.50;;;;;;5052118;28;20193;-67
2023/04/27 00:31:18;;;;;;;1.73;0.83;;;9.60;73.70;;;;;;5051179;28;20286;-67
2023/04/27 00:33:45;;;;;;;1.43;0.93;;;9.60;73.70;;;;;;5046544;28;20199;-67
2023/04/27 00:36:13;;;;;;;1.70;0.90;;;9.60;73.70;;;;;;5051132;28;20618;-68
2023/04/27 00:38:41;;;;;;;1.43;1.27;;;9.60;73.80;;;;;;5049867;28;20194;-67
2023/04/27 00:41:08;;;;;;;0.70;0.70;;;9.60;73.90;;;;;;5046310;28;20241;-68
2023/04/27 00:43:42;;;;;;;2.50;1.17;;;9.60;74.00;;;;;;5051050;28;20727;-67
2023/04/27 00:46:10;;;;;;;1.03;0.73;;;9.60;74.30;;;;;;5044818;28;20749;-67
2023/04/27 00:48:37;;;;;;;1.37;0.87;;;9.50;74.40;;;;;;5047357;28;20719;-67
2023/04/27 00:51:05;;;;;;;1.87;0.93;;;9.50;74.40;;;;;;5050737;28;20235;-68
2023/04/27 00:53:36;;;;;;;1.33;0.90;;;9.50;74.60;;;;;;5050487;28;20197;-67
2023/04/27 00:56:04;;;;;;;2.63;1.10;;;9.50;74.90;;;;;;5049819;28;20196;-68
2023/04/27 00:58:31;;;;;;;1.63;1.07;;;9.50;75.30;;;;;;5059367;28;20194;-69
2023/04/27 01:00:59;;;;;;;1.33;0.80;;;9.40;75.20;;;;;;5049873;28;20240;-69
2023/04/27 01:03:26;;;;;;;4.07;1.20;;;9.40;75.30;;;;;;5041829;28;20320;-68
2023/04/27 01:05:55;;;;;;;1.37;1.00;;;9.40;75.70;;;;;;5016119;28;20274;-68
2023/04/27 01:08:23;;;;;;;0.93;0.83;;;9.40;75.70;;;;;;5037420;28;20221;-68
2023/04/27 01:10:51;;;;;;;0.97;0.70;;;9.40;75.90;;;;;;5010595;28;20269;-69
2023/04/27 01:13:19;;;;;;;0.80;0.73;;;9.40;76.10;;;;;;5017065;28;20202;-69
2023/04/27 01:15:46;;;;;;;1.10;1.00;;;9.30;76.10;;;;;;5024952;28;20272;-68
2023/04/27 01:18:13;;;;;;;3.10;1.13;;;9.30;76.20;;;;;;5004994;28;20251;-68
2023/04/27 01:20:41;;;;;;;3.10;1.10;;;9.30;76.80;;;;;;5030326;28;20282;-68
2023/04/27 01:23:13;;;;;;;2.53;1.10;;;9.30;77.10;;;;;;5003709;28;20223;-67
2023/04/27 01:25:42;;;;;;;1.77;1.00;;;9.20;77.20;;;;;;5012407;28;20212;-68
2023/04/27 01:28:09;;;;;;;1.67;0.97;;;9.20;77.20;;;;;;5031504;28;20199;-68
2023/04/27 01:30:37;;;;;;;1.77;1.10;;;9.20;77.50;;;;;;5028011;28;20248;-68
2023/04/27 01:33:04;;;;;;;1.20;0.70;;;9.20;77.60;;;;;;5031884;28;20198;-68
2023/04/27 01:35:32;;;;;;;1.60;1.00;;;9.20;77.70;;;;;;5017005;28;20294;-67
2023/04/27 01:38:01;;;;;;;1.80;0.83;;;9.20;77.80;;;;;;5017263;28;20197;-67
2023/04/27 01:40:30;;;;;;;1.10;0.87;;;9.30;77.80;;;;;;5012469;28;20206;-67
2023/04/27 01:42:57;;;;;;;1.97;1.00;;;9.20;77.90;;;;;;5016917;28;20212;-68
2023/04/27 01:45:24;;;;;;;2.80;1.03;;;9.30;78.30;;;;;;5012169;28;20677;-68
2023/04/27 01:47:51;;;;;;;1.23;0.50;;;9.30;78.30;;;;;;5029044;28;20295;-68
2023/04/27 01:50:20;;;;;;;1.63;1.10;;;9.30;78.30;;;;;;5013400;28;20294;-68
2023/04/27 01:52:47;;;;;;;3.23;0.80;;;9.30;78.50;;;;;;5011567;28;20193;-68
2023/04/27 01:55:14;;;;;;;0.80;0.80;;;9.30;78.50;;;;;;5035941;28;20520;-68
2023/04/27 01:57:43;;;;;;;1.80;0.93;;;9.20;78.60;;;;;;5010562;28;20199;-68
2023/04/27 02:00:12;;;;;;;0.80;0.80;;;9.20;78.70;;;;;;5019140;28;20572;-68
2023/04/27 02:02:52;;;;;;;1.57;0.60;;;9.20;78.90;;;;;;5028227;28;20214;-68
2023/04/27 02:05:19;;;;;;;2.00;0.80;;;9.20;79.00;;;;;;5046023;28;20397;-68
2023/04/27 02:07:48;;;;;;;1.13;0.70;;;9.20;79.10;;;;;;5052485;28;20741;-68
2023/04/27 02:10:15;;;;;;;0.70;0.60;;;9.20;79.20;;;;;;5050091;28;20253;-68
2023/04/27 02:12:43;;;;;;;0.70;0.70;;;9.20;79.30;;;;;;5039664;28;20214;-68
2023/04/27 02:15:10;;;;;;;1.57;0.90;;;9.20;79.30;;;;;;5048879;28;20219;-67
2023/04/27 02:17:38;;;;;;;0.70;0.63;;;9.30;79.30;;;;;;5040810;28;20689;-68
2023/04/27 02:20:07;;;;;;;1.00;0.60;;;9.20;79.30;;;;;;5045264;28;20624;-67
2023/04/27 02:22:35;;;;;;;1.50;0.90;;;9.20;79.40;;;;;;5047306;28;20196;-68
2023/04/27 02:25:02;;;;;;;3.60;0.80;;;9.20;79.50;;;;;;5048197;28;20208;-67
2023/04/27 02:27:29;;;;;;;1.63;0.80;;;9.30;79.70;;;;;;5045405;28;20329;-68
2023/04/27 02:29:59;;;;;;;1.20;0.90;;;9.20;79.50;;;;;;5048924;28;20217;-68
2023/04/27 02:32:27;;;;;;;1.60;1.00;;;9.20;80.50;;;;;;5044652;28;20276;-68
2023/04/27 02:34:55;;;;;;;1.00;0.70;;;9.20;80.00;;;;;;5048654;28;20208;-67
2023/04/27 02:37:22;;;;;;;1.43;1.20;;;9.20;80.00;;;;;;5048392;28;20215;-68
2023/04/27 02:39:49;;;;;;;2.30;1.00;;;9.10;80.20;;;;;;5046869;28;20309;-68
2023/04/27 02:42:17;;;;;;;3.97;1.00;;;9.10;80.30;;;;;;5045678;28;20286;-68
2023/04/27 02:44:44;;;;;;;2.10;1.00;;;9.10;80.40;;;;;;5049744;28;20559;-68
2023/04/27 02:47:13;;;;;;;1.47;1.00;;;9.10;80.50;;;;;;5044278;28;20295;-68
2023/04/27 02:49:42;;;;;;;1.20;0.73;;;9.10;80.50;;;;;;5048338;28;20202;-68
2023/04/27 02:52:09;;;;;;;1.10;0.80;;;9.00;80.50;;;;;;5048427;28;20730;-68
2023/04/27 02:54:37;;;;;;;1.30;0.87;;;9.00;80.70;;;;;;5044136;28;20192;-67
2023/04/27 02:57:04;;;;;;;3.07;1.30;;;9.00;80.80;;;;;;5047830;28;20202;-68
2023/04/27 02:59:31;;;;;;;2.10;1.00;;;9.00;81.10;;;;;;5050448;28;20205;-68
2023/04/27 03:01:58;;;;;;;1.47;1.23;;;9.00;81.20;;;;;;5044172;28;20435;-68
2023/04/27 03:04:27;;;;;;;2.47;0.93;;;9.00;81.70;;;;;;5047967;28;20306;-68
2023/04/27 03:06:54;;;;;;;1.80;1.30;;;8.90;81.60;;;;;;5052208;28;20674;-68
2023/04/27 03:09:21;;;;;;;3.77;1.27;;;8.90;81.90;;;;;;5045792;28;20204;-68
2023/04/27 03:11:48;;;;;;;0.80;0.80;;;8.80;82.20;;;;;;5053099;28;20199;-68
2023/04/27 03:14:15;;;;;;;1.60;0.87;;;8.80;82.20;;;;;;5053612;28;20221;-68
2023/04/27 03:16:42;;;;;;;1.73;1.10;;;8.80;82.20;;;;;;5048784;28;20208;-68
2023/04/27 03:19:10;;;;;;;1.97;1.00;;;8.80;82.40;;;;;;5055597;28;20242;-68
2023/04/27 03:21:38;;;;;;;1.90;1.10;;;8.80;82.50;;;;;;5049687;28;20197;-68
2023/04/27 03:24:06;;;;;;;2.70;1.00;;;8.80;82.70;;;;;;5048540;28;20585;-68
2023/04/27 03:26:33;;;;;;;1.30;1.10;;;8.80;82.70;;;;;;5052207;28;20198;-68
2023/04/27 03:29:00;;;;;;;1.93;1.00;;;8.80;82.90;;;;;;5047785;28;20267;-68
2023/04/27 03:31:29;;;;;;;1.50;1.13;;;8.80;83.20;;;;;;5052296;28;20206;-67
2023/04/27 03:33:56;;;;;;;2.47;1.03;;;8.80;83.20;;;;;;5052397;28;20211;-67
2023/04/27 03:36:23;;;;;;;1.77;1.03;;;8.80;83.30;;;;;;5050489;28;20202;-67
2023/04/27 03:38:51;;;;;;;2.67;1.30;;;8.80;83.50;;;;;;5063524;28;20201;-67
2023/04/27 03:41:19;;;;;;;1.73;1.47;;;8.70;83.50;;;;;;5051432;28;20213;-67
2023/04/27 03:43:46;;;;;;;3.10;1.40;;;8.70;83.90;;;;;;5050214;28;20208;-68
2023/04/27 03:46:13;;;;;;;2.93;1.07;;;8.70;83.90;;;;;;5053724;28;20229;-68
2023/04/27 03:48:42;;;;;;;4.47;1.27;;;8.70;84.10;;;;;;5051380;28;20294;-67
2023/04/27 03:51:10;;;;;;;2.27;1.37;;;8.70;84.40;;;;;;5050021;28;20555;-68
2023/04/27 03:53:37;;;;;;;4.10;1.53;;;8.70;84.40;;;;;;5054201;28;20771;-69
2023/04/27 03:56:08;;;;;;;4.97;1.60;;;8.70;84.40;;;;;;5051104;28;20210;-68
2023/04/27 03:58:35;;;;;;;2.07;1.40;;;8.70;84.60;;;;;;5047929;28;20230;-68
2023/04/27 04:01:15;;;;;;;2.43;1.23;;;8.70;84.60;;;;;;5047138;28;20220;-68
2023/04/27 04:03:43;;;;;;;2.17;1.10;;;8.70;84.90;;;;;;5049447;28;20753;-69
2023/04/27 04:06:10;;;;;;;3.13;1.43;;;8.70;84.80;;;;;;5048214;28;20201;-69
2023/04/27 04:08:37;;;;;;;3.27;1.80;;;8.70;84.90;;;;;;5050644;28;20234;-68
2023/04/27 04:11:05;;;;;;;3.20;1.50;;;8.70;85.10;;;;;;5048608;28;20203;-68
2023/04/27 04:13:36;;;;;;;2.40;1.43;;;8.80;85.30;;;;;;5050245;28;20199;-69
2023/04/27 04:16:05;;;;;;;2.30;1.37;;;8.80;85.30;;;;;;5047948;28;20214;-68
2023/04/27 04:18:34;;;;;;;5.60;1.90;;;8.90;85.40;;;;;;5047016;28;20198;-68
2023/04/27 04:21:01;;;;;;;3.17;1.60;;;8.80;85.70;;;;;;5041474;28;20200;-68
2023/04/27 04:23:29;;;;;;;3.43;1.70;;;8.80;85.40;;;;;;5049854;28;20299;-68
2023/04/27 04:25:56;;;;;;;2.67;1.50;;;8.90;86.40;;;;;;5047456;28;20295;-68
2023/04/27 04:28:25;;;;;;;2.87;1.40;;;8.90;85.80;;;;;;5050721;28;20219;-68
2023/04/27 04:30:54;;;;;;;1.83;1.17;;;8.90;85.70;;;;;;5050644;28;20204;-68
2023/04/27 04:33:21;;;;;;;2.00;1.23;;;8.90;85.80;;;;;;5047173;28;20203;-68
2023/04/27 04:35:49;;;;;;;3.03;1.53;;;9.00;85.90;;;;;;5050174;28;20203;-67
2023/04/27 04:38:16;;;;;;;4.63;1.37;;;9.00;86.20;;;;;;5053548;28;20262;-69
2023/04/27 04:40:43;;;;;;;3.87;1.63;;;9.00;87.10;;;;;;5058988;28;20666;-69
2023/04/27 04:43:11;;;;;;;5.23;1.37;;;9.10;86.80;;;;;;5055142;28;20306;-67
2023/04/27 04:45:38;;;;;;;2.33;1.33;;;9.10;86.70;;;;;;5048803;28;20258;-67
2023/04/27 04:48:07;;;;;;;1.47;1.10;;;9.10;86.70;;;;;;5047368;28;20214;-68
2023/04/27 04:50:35;;;;;;;1.73;1.00;;;9.10;86.80;;;;;;5050782;28;20208;-67
2023/04/27 04:53:03;;;;;;;4.53;1.57;;;9.20;86.90;;;;;;5049544;28;20577;-67
2023/04/27 04:55:30;;;;;;;4.37;1.80;;;9.20;87.20;;;;;;5046936;28;20203;-67
2023/04/27 04:57:57;;;;;;;4.17;1.67;;;9.20;87.50;;;;;;5050196;28;20216;-67
2023/04/27 05:00:24;;;;;;;1.77;1.50;;;9.30;87.50;;;;;;5047063;28;20207;-67
2023/04/27 05:02:52;;;;;;;2.30;1.33;;;9.30;87.50;;;;;;5048490;28;20199;-69
2023/04/27 05:05:20;;;;;;;2.27;1.53;;;9.30;88.30;;;;;;5051748;28;20294;-69
2023/04/27 05:07:47;;;;;;;1.77;1.27;;;9.30;87.50;;;;;;5046378;28;20266;-68
2023/04/27 05:10:15;;;;;;;3.13;1.30;;;9.30;87.60;;;;;;5046348;28;20205;-69
2023/04/27 05:12:43;;;;;;;1.40;1.30;;;9.40;87.80;;;;;;5049037;28;20633;-69
2023/04/27 05:15:11;;;;;;;2.43;1.30;;;9.40;88.00;;;;;;5049073;28;20288;-69
2023/04/27 05:17:38;;;;;;;2.63;1.20;;;9.50;88.20;;;;;;5050280;28;20209;-67
2023/04/27 05:20:07;;;;;;;1.33;1.10;;;9.50;88.20;;;;;;5051243;28;20281;-67
2023/04/27 05:22:36;;;;;;;3.43;1.60;;;9.60;88.30;;;;;;5045132;28;20213;-67
2023/04/27 05:25:03;;;;;;;1.60;1.30;;;9.60;88.40;;;;;;5050832;28;20291;-67
2023/04/27 05:27:30;;;;;;;3.33;1.57;;;9.60;88.30;;;;;;5048870;28;20300;-68
2023/04/27 05:29:57;;;;;;;2.17;1.43;;;9.70;88.40;;;;;;5048835;28;20198;-68
2023/04/27 05:32:24;;;;;;;3.63;1.47;;;9.70;88.30;;;;;;5049661;28;20197;-67
2023/04/27 05:34:51;;;;;;;1.83;1.20;;;9.70;88.10;;;;;;5053970;28;20537;-67
2023/04/27 05:37:19;;;;;;;3.00;1.67;;;9.80;88.10;;;;;;5048540;28;20192;-68
2023/04/27 05:39:47;;;;;;;1.30;1.10;;;9.80;88.00;;;;;;5049653;28;20197;-68
2023/04/27 05:42:14;;;;;;;7.37;1.60;;;9.80;87.90;;;;;;5057193;28;20215;-67
2023/04/27 05:44:42;;;;;;;2.80;1.63;;;9.80;87.90;;;;;;5053236;28;20212;-68
2023/04/27 05:47:09;;;;;;;1.33;1.20;;;9.80;87.80;;;;;;5049705;28;20214;-68
2023/04/27 05:49:36;;;;;;;1.53;1.10;;;9.80;87.80;;;;;;5048932;28;20204;-67
2023/04/27 05:52:03;;;;;;;4.20;1.60;;;9.80;87.80;;;;;;5051199;28;20253;-67
2023/04/27 05:54:30;;;;;;;1.27;1.17;;;9.90;88.00;;;;;;5058686;28;20199;-68
2023/04/27 05:56:59;;;;;;;1.90;1.20;;;9.90;87.90;;;;;;5048877;28;20220;-67
2023/04/27 05:59:26;;;;;;;1.60;0.97;;;10.00;87.00;;;;;;5047833;28;20204;-68
2023/04/27 06:01:53;;;;;;;2.20;1.50;;;10.10;86.70;;;;;;5050187;28;20210;-67
2023/04/27 06:04:20;;;;;;;3.93;1.60;;;10.10;86.50;;;;;;5046234;28;20225;-67
2023/04/27 06:06:47;;;;;;;3.27;1.30;;;10.10;86.40;;;;;;5049722;28;20216;-67
2023/04/27 06:09:14;;;;;;;2.20;1.30;;;10.20;86.20;;;;;;5049179;28;20619;-68
2023/04/27 06:11:42;;;;;;;1.73;1.20;;;10.30;86.10;;;;;;5046421;28;20205;-68
2023/04/27 06:14:10;;;;;;;5.50;1.37;;;10.40;85.90;;;;;;5051048;28;20189;-68
2023/04/27 06:16:37;;;;;;;5.90;1.73;;;10.40;85.50;;;;;;5048624;28;20633;-67
2023/04/27 06:19:05;;;;;;;2.67;1.00;;;10.50;85.10;;;;;;5051331;28;20229;-68
2023/04/27 06:21:37;;;;;;;2.83;1.30;;;10.50;84.80;;;;;;5038691;28;20191;-68
2023/04/27 06:24:39;;;;;;;;;;;;;;;;;;;;;
2023/04/27 06:30:21;;;;;;;1.20;0.90;;;10.70;84.10;;;;;;5047206;28;20285;-67
2023/04/27 06:32:51;;;;;;;1.30;0.87;;;10.70;83.30;;;;;;5046377;28;20681;-68
2023/04/27 06:35:20;;;;;;;4.43;1.20;;;10.70;83.00;;;;;;5047828;28;20223;-68
2023/04/27 06:37:48;;;;;;;0.80;0.80;;;10.70;82.40;;;;;;5046213;28;20203;-67
2023/04/27 06:40:20;;;;;;;2.13;0.93;;;10.70;82.10;;;;;;5042725;28;20255;-70
2023/04/27 06:42:48;;;;;;;0.80;0.80;;;10.70;81.60;;;;;;5041932;28;20211;-68
2023/04/27 06:45:17;;;;;;;0.80;0.77;;;10.90;81.70;;;;;;5048802;28;20217;-69
2023/04/27 06:47:44;;;;;;;1.30;0.90;;;10.90;81.50;;;;;;5047651;28;20251;-68
2023/04/27 06:50:11;;;;;;;0.67;0.67;;;11.00;81.40;;;;;;5052170;28;20197;-68
2023/04/27 06:52:39;;;;;;;2.80;0.90;;;11.10;81.20;;;;;;5043445;28;20201;-67
2023/04/27 06:55:07;;;;;;;2.70;1.37;;;11.20;80.90;;;;;;5049936;28;20580;-67
2023/04/27 06:57:34;;;;;;;0.80;0.80;;;11.30;80.50;;;;;;5051027;28;20532;-69
2023/04/27 07:00:01;;;;;;;1.60;0.83;;;11.40;80.50;;;;;;5045213;28;20201;-71
2023/04/27 07:02:30;;;;;;;1.93;1.07;;;11.50;80.20;;;;;;5049947;28;20316;-70
2023/04/27 07:04:57;;;;;;;1.57;1.13;;;11.50;79.80;;;;;;5053488;28;20623;-68
2023/04/27 07:07:24;;;;;;;1.47;0.87;;;11.60;79.50;;;;;;5043792;28;20190;-68
2023/04/27 07:09:52;;;;;;;2.40;1.20;;;11.60;79.30;;;;;;5044132;28;20199;-67
2023/04/27 07:12:19;;;;;;;4.63;1.80;;;11.60;79.10;;;;;;5041099;28;20201;-68
2023/04/27 07:14:49;;;;;;;1.97;1.33;;;11.70;78.90;;;;;;5040399;28;20201;-67
2023/04/27 07:17:16;;;;;;;1.87;1.40;;;11.70;78.70;;;;;;5054936;28;20277;-67
2023/04/27 07:19:45;;;;;;;2.63;1.20;;;11.70;78.00;;;;;;5056605;28;20209;-68
2023/04/27 07:22:12;;;;;;;1.57;1.13;;;11.70;77.00;;;;;;5040480;28;20550;-68
2023/04/27 07:24:39;;;;;;;1.93;1.20;;;11.80;77.00;;;;;;5049022;28;20215;-68
2023/04/27 07:27:07;;;;;;;3.80;1.37;;;11.80;76.80;;;;;;5043422;28;20615;-68
2023/04/27 07:29:34;;;;;;;2.67;1.53;;;12.00;76.50;;;;;;5046719;28;20671;-68
2023/04/27 07:32:01;;;;;;;1.40;1.27;;;12.00;76.10;;;;;;5047097;28;20251;-67
2023/04/27 07:34:30;;;;;;;2.27;1.10;;;12.10;75.30;;;;;;5048000;28;20197;-68
2023/04/27 07:36:58;;;;;;;3.03;1.10;;;12.20;74.60;;;;;;5047184;28;20283;-68
2023/04/27 07:39:26;;;;;;;1.23;1.00;;;12.20;74.60;;;;;;5047003;28;20202;-68
2023/04/27 07:41:53;;;;;;;3.57;0.87;;;12.20;74.50;;;;;;5042386;28;20212;-68
2023/04/27 07:44:20;;;;;;;2.33;0.90;;;12.20;74.30;;;;;;5048513;28;20224;-68
2023/04/27 07:46:49;;;;;;;3.37;1.00;;;12.30;74.50;;;;;;5048899;28;20198;-68
2023/04/27 07:49:16;;;;;;;0.90;0.90;;;12.30;73.10;;;;;;5043456;28;20198;-68
2023/04/27 07:51:43;;;;;;;1.60;0.90;;;12.30;72.20;;;;;;5051596;28;20219;-68
2023/04/27 07:54:11;;;;;;;1.57;1.20;;;12.30;71.60;;;;;;5045709;28;20256;-68
2023/04/27 07:56:41;;;;;;;0.80;0.80;;;12.40;70.10;;;;;;5048320;28;20217;-68
2023/04/27 07:59:08;;;;;;;1.10;0.97;;;12.50;69.90;;;;;;5050053;28;20208;-68
2023/04/27 08:01:36;;;;;;;1.13;1.03;;;12.60;68.80;;;;;;5052419;28;20266;-68
2023/04/27 08:04:04;;;;;;;0.60;0.60;;;12.50;67.90;;;;;;5051021;28;20239;-68
2023/04/27 08:06:31;;;;;;;1.60;0.90;;;12.50;67.80;;;;;;5056613;28;20230;-68
2023/04/27 08:08:59;;;;;;;1.63;1.03;;;12.40;67.30;;;;;;5050071;28;20205;-68
2023/04/27 08:11:28;;;;;;;0.90;0.90;;;12.40;67.10;;;;;;5044239;28;20194;-68
2023/04/27 08:13:55;;;;;;;1.57;0.77;;;12.40;66.90;;;;;;5050610;28;20592;-68
2023/04/27 08:16:22;;;;;;;1.27;1.10;;;12.50;66.80;;;;;;5061904;28;20656;-68
2023/04/27 08:18:49;;;;;;;2.13;1.20;;;12.50;65.60;;;;;;5045926;28;20187;-68
2023/04/27 08:21:17;;;;;;;2.20;1.03;;;12.40;64.90;;;;;;5057712;28;20193;-68
2023/04/27 08:23:44;;;;;;;2.97;1.20;;;12.30;64.90;;;;;;5053976;28;20630;-68
2023/04/27 08:26:15;;;;;;;2.33;1.17;;;12.20;65.40;;;;;;5057134;28;20684;-68
2023/04/27 08:28:43;;;;;;;1.47;1.00;;;12.10;66.20;;;;;;5049256;28;20248;-68
2023/04/27 08:31:11;;;;;;;2.63;1.00;;;12.10;67.00;;;;;;5059961;28;20224;-68
2023/04/27 08:33:38;;;;;;;1.77;1.20;;;12.10;67.60;;;;;;5050948;28;20222;-68
2023/04/27 08:36:06;;;;;;;2.07;1.17;;;12.10;68.30;;;;;;5052472;28;20193;-68
2023/04/27 08:38:34;;;;;;;1.90;1.10;;;12.20;68.80;;;;;;5048240;28;20198;-68
2023/04/27 08:41:01;;;;;;;2.10;1.00;;;12.30;69.00;;;;;;5049730;28;20363;-68
2023/04/27 08:43:34;;;;;;;3.90;1.00;;;12.40;69.00;;;;;;5055663;28;20251;-68
2023/04/27 08:46:02;;;;;;;1.00;1.00;;;12.50;68.80;;;;;;5042540;28;20311;-68
2023/04/27 08:48:30;;;;;;;0.70;0.70;;;12.50;68.80;;;;;;5050320;28;20534;-68
2023/04/27 08:50:59;;;;;;;0.70;0.53;;;12.60;68.90;;;;;;5048887;28;20247;-68
2023/04/27 08:53:26;;;;;;;0.50;0.50;;;12.70;68.80;;;;;;5047731;28;20197;-67
2023/04/27 08:55:55;;;;;;;0.50;0.50;;;12.80;68.70;;;;;;5045704;28;20201;-68
2023/04/27 08:58:22;;;;;;;1.07;0.90;;;12.90;68.50;;;;;;5055901;28;20198;-68
2023/04/27 09:00:50;;;;;;;1.23;0.60;;;13.00;68.40;;;;;;5048961;28;20197;-67
2023/04/27 09:03:24;;;;;;;0.90;0.90;;;13.10;68.40;;;;;;5048555;28;20316;-68
2023/04/27 09:05:52;;;;;;;1.00;0.83;;;13.20;67.90;;;;;;5051231;28;20259;-67
2023/04/27 09:08:19;;;;;;;0.70;0.70;;;13.30;67.40;;;;;;5051687;28;20202;-67
2023/04/27 09:10:47;;;;;;;1.63;0.93;;;13.50;67.30;;;;;;5048771;28;20297;-67
2023/04/27 09:13:15;;;;;;;0.63;0.63;;;13.70;66.70;;;;;;5041176;28;20198;-68
2023/04/27 09:15:43;;;;;;;1.23;0.80;;;13.80;65.80;;;;;;5043803;28;20191;-67
2023/04/27 09:18:19;;;;;;;1.40;1.30;;;13.80;65.30;;;;;;5050306;28;20214;-68
2023/04/27 09:20:50;;;;;;;1.30;1.20;;;13.90;65.20;;;;;;5050703;28;20647;-68
2023/04/27 09:23:36;;;;;;;1.10;0.90;;;14.00;64.60;;;;;;5051989;28;20198;-68
2023/04/27 09:26:06;;;;;;;0.90;0.80;;;14.00;64.40;;;;;;5047298;28;20244;-68
2023/04/27 09:28:35;;;;;;;0.70;0.70;;;14.10;63.20;;;;;;5056021;28;20649;-68
2023/04/27 09:31:04;;;;;;;1.93;0.90;;;14.10;62.80;;;;;;5053321;28;20540;-68
2023/04/27 09:33:32;;;;;;;0.70;0.70;;;14.10;62.80;;;;;;5048584;28;20275;-68
2023/04/27 09:36:03;;;;;;;1.33;1.10;;;14.10;62.70;;;;;;5047583;28;20195;-67
2023/04/27 09:38:31;;;;;;;1.03;0.73;;;14.30;62.40;;;;;;5047208;28;20210;-68
2023/04/27 09:40:58;;;;;;;0.67;0.60;;;14.40;61.00;;;;;;5051667;28;20297;-67
2023/04/27 09:43:27;;;;;;;1.77;0.90;;;14.50;60.70;;;;;;5054490;28;20702;-67
2023/04/27 09:45:55;;;;;;;0.97;0.80;;;14.60;60.30;;;;;;5053833;28;20224;-68
2023/04/27 09:48:24;;;;;;;2.53;0.60;;;14.70;59.90;;;;;;5048931;28;20198;-67
2023/04/27 09:50:52;;;;;;;0.50;0.50;;;14.80;59.80;;;;;;5050599;28;20202;-67
2023/04/27 09:53:25;;;;;;;0.60;0.60;;;15.00;60.20;;;;;;5055650;28;20205;-68
2023/04/27 09:56:09;;;;;;;1.10;1.00;;;15.30;61.10;;;;;;5050723;28;20338;-68
2023/04/27 09:59:15;;;;;;;0.60;0.60;;;15.40;61.30;;;;;;5052273;28;20220;-68
2023/04/27 10:01:47;;;;;;;0.43;0.43;;;15.40;61.60;;;;;;5053097;28;20201;-68
2023/04/27 10:04:33;;;;;;;1.30;0.90;;;15.30;61.80;;;;;;5057836;28;20240;-68
2023/04/27 10:07:01;;;;;;;3.57;0.83;;;15.10;61.40;;;;;;5050668;28;20212;-68
2023/04/27 10:09:37;;;;;;;0.83;0.67;;;14.80;61.10;;;;;;5057537;28;20477;-68
2023/04/27 10:12:16;;;;;;;1.20;0.90;;;14.40;61.30;;;;;;5045495;28;20326;-67
2023/04/27 10:14:54;;;;;;;1.13;0.67;;;14.10;61.10;;;;;;5044400;28;20594;-67
2023/04/27 10:17:26;;;;;;;0.43;0.43;;;13.90;61.40;;;;;;5045178;28;20399;-68
2023/04/27 10:19:55;;;;;;;0.60;0.60;;;13.80;61.50;;;;;;5050546;28;20283;-67
2023/04/27 10:22:23;;;;;;;1.90;0.80;;;13.70;61.30;;;;;;5048010;28;20196;-68
2023/04/27 10:24:52;;;;;;;1.00;0.63;;;13.60;60.20;;;;;;5043938;28;20200;-68
2023/04/27 10:27:21;;;;;;;0.80;0.80;;;13.50;60.40;;;;;;5052213;28;20211;-66
2023/04/27 10:29:50;;;;;;;0.70;0.70;;;13.50;61.00;;;;;;5044517;28;20200;-68
2023/04/27 10:32:22;;;;;;;3.60;0.80;;;13.50;61.70;;;;;;5044568;28;20478;-68
2023/04/27 10:34:50;;;;;;;2.27;0.70;;;13.50;61.40;;;;;;5041371;28;20222;-68
2023/04/27 10:37:23;;;;;;;0.90;0.80;;;13.40;61.70;;;;;;5050855;28;20284;-69
2023/04/27 10:39:52;;;;;;;1.03;0.80;;;13.30;61.90;;;;;;5047454;28;20210;-67
2023/04/27 10:42:29;;;;;;;0.63;0.60;;;13.20;62.00;;;;;;5047426;28;20194;-67
2023/04/27 10:44:57;;;;;;;0.50;0.50;;;13.00;61.80;;;;;;5048150;28;20198;-67
2023/04/27 10:47:35;;;;;;;1.87;0.70;;;12.90;61.90;;;;;;5057149;28;20211;-67
2023/04/27 10:50:04;;;;;;;0.80;0.70;;;12.90;62.30;;;;;;5040719;28;20195;-68
2023/04/27 10:52:32;;;;;;;1.30;0.50;;;13.00;62.40;;;;;;5052154;28;20201;-67
2023/04/27 10:55:12;;;;;;;0.70;0.70;;;13.20;62.30;;;;;;5046424;28;20268;-68
2023/04/27 10:57:46;;;;;;;1.80;0.70;;;13.30;61.40;;;;;;5048257;28;20249;-67
2023/04/27 11:00:16;;;;;;;0.60;0.53;;;13.30;60.80;;;;;;5050739;28;20294;-67
2023/04/27 11:02:45;;;;;;;0.63;0.63;;;13.30;60.50;;;;;;5049405;28;20503;-67
2023/04/27 11:05:23;;;;;;;3.03;1.17;;;13.30;60.20;;;;;;5042837;28;20228;-67
2023/04/27 11:07:51;;;;;;;1.40;0.77;;;13.30;60.00;;;;;;5045463;28;20215;-68
2023/04/27 11:10:20;;;;;;;1.10;1.00;;;13.30;60.00;;;;;;5048475;28;20193;-67
2023/04/27 11:12:47;;;;;;;0.80;0.80;;;13.30;60.00;;;;;;5047566;28;20191;-68
2023/04/27 11:15:15;;;;;;;1.20;0.80;;;13.40;60.00;;;;;;5041104;28;20211;-68
2023/04/27 11:17:43;;;;;;;2.10;0.87;;;13.50;60.40;;;;;;5051787;28;20273;-68
2023/04/27 11:20:10;;;;;;;0.73;0.73;;;13.50;60.30;;;;;;5046821;28;20203;-68
2023/04/27 11:22:45;;;;;;;1.90;0.90;;;13.70;60.50;;;;;;5046866;28;20201;-68
2023/04/27 11:25:13;;;;;;;3.90;1.00;;;13.90;60.80;;;;;;5044573;28;20290;-68
2023/04/27 11:27:42;;;;;;;0.87;0.80;;;14.00;60.70;;;;;;5051913;28;20223;-68
2023/04/27 11:30:21;;;;;;;1.03;0.80;;;14.20;60.90;;;;;;5051282;28;20249;-68
2023/04/27 11:32:49;;;;;;;1.00;0.90;;;14.30;60.70;;;;;;5049621;28;20203;-66
2023/04/27 11:35:17;;;;;;;0.97;0.83;;;14.50;60.90;;;;;;5045884;28;20192;-68
2023/04/27 11:37:44;;;;;;;0.90;0.83;;;14.70;61.20;;;;;;5049809;28;20504;-67
2023/04/27 11:40:14;;;;;;;0.90;0.90;;;14.80;61.20;;;;;;5050221;28;20530;-68
2023/04/27 11:42:45;;;;;;;2.93;0.97;;;14.90;60.60;;;;;;5039060;28;20287;-67
2023/04/27 11:45:13;;;;;;;1.87;0.97;;;15.00;59.10;;;;;;5053789;28;20190;-68
2023/04/27 11:47:46;;;;;;;0.73;0.70;;;14.90;57.90;;;;;;5058879;28;20250;-68
2023/04/27 11:50:13;;;;;;;0.83;0.83;;;14.70;58.30;;;;;;5050642;28;20225;-67
2023/04/27 11:52:41;;;;;;;1.80;0.90;;;14.70;58.40;;;;;;5055863;28;20774;-68
2023/04/27 11:55:14;;;;;;;1.33;0.90;;;14.60;58.20;;;;;;5054531;28;20201;-67
2023/04/27 11:57:43;;;;;;;1.10;0.80;;;14.60;58.40;;;;;;5054219;28;20189;-67
2023/04/27 12:00:13;;;;;;;0.90;0.90;;;14.50;58.40;;;;;;5053896;28;20197;-67
2023/04/27 12:02:40;;;;;;;0.60;0.60;;;14.50;58.20;;;;;;5052841;28;20579;-67
2023/04/27 12:05:08;;;;;;;1.00;0.90;;;14.40;58.10;;;;;;5053120;28;20227;-67
2023/04/27 12:07:36;;;;;;;0.60;0.60;;;14.30;57.40;;;;;;5049310;28;20225;-66
2023/04/27 12:10:03;;;;;;;0.60;0.60;;;14.20;56.80;;;;;;5051297;28;20229;-67
2023/04/27 12:12:32;;;;;;;0.60;0.60;;;14.20;56.80;;;;;;5058317;28;20189;-67
2023/04/27 12:15:00;;;;;;;3.00;1.23;;;14.20;56.40;;;;;;5054730;28;20193;-68
2023/04/27 12:17:28;;;;;;;1.63;1.03;;;14.20;55.60;;;;;;5049684;28;20209;-68
2023/04/27 12:19:55;;;;;;;1.47;1.03;;;14.20;55.50;;;;;;5050380;28;20208;-68
2023/04/27 12:22:23;;;;;;;0.80;0.80;;;14.20;55.40;;;;;;5050254;28;20333;-68
2023/04/27 12:24:51;;;;;;;2.40;0.80;;;14.20;55.50;;;;;;5052245;28;20695;-68
2023/04/27 12:27:18;;;;;;;2.50;0.80;;;14.30;55.00;;;;;;5050430;28;20239;-68
2023/04/27 12:29:45;;;;;;;0.80;0.80;;;14.40;54.90;;;;;;5052264;28;20284;-68
2023/04/27 12:32:14;;;;;;;2.00;0.90;;;14.50;54.60;;;;;;5049310;28;20208;-69
2023/04/27 12:34:41;;;;;;;1.40;0.80;;;14.60;53.70;;;;;;5048768;28;20233;-68
2023/04/27 12:37:08;;;;;;;0.87;0.87;;;14.70;53.60;;;;;;5050617;28;20212;-68
2023/04/27 12:39:36;;;;;;;0.57;0.57;;;14.70;53.20;;;;;;5049612;28;20203;-67
2023/04/27 12:42:03;;;;;;;0.60;0.60;;;14.70;52.90;;;;;;5050768;28;20242;-67
2023/04/27 12:44:31;;;;;;;0.70;0.70;;;14.70;53.10;;;;;;5067809;28;20222;-67
2023/04/27 12:46:58;;;;;;;0.53;0.53;;;14.70;53.20;;;;;;5050993;28;20725;-66
2023/04/27 12:49:26;;;;;;;0.93;0.80;;;14.70;53.20;;;;;;5052396;28;20567;-67
2023/04/27 12:51:55;;;;;;;1.37;0.90;;;14.70;52.70;;;;;;5051007;28;20319;-67
2023/04/27 12:54:23;;;;;;;2.30;1.23;;;14.60;51.90;;;;;;5044356;28;20201;-67
2023/04/27 12:56:50;;;;;;;2.83;0.80;;;14.60;51.80;;;;;;5046390;28;20291;-67
2023/04/27 12:59:17;;;;;;;1.40;0.70;;;14.60;51.90;;;;;;5051729;28;20197;-67
2023/04/27 13:01:45;;;;;;;1.70;0.70;;;14.60;52.10;;;;;;5049477;28;20219;-67
2023/04/27 13:04:18;;;;;;;0.50;0.50;;;14.70;52.10;;;;;;5049748;28;20240;-67